createdAt,value
2023-02-19T00:00:56.290Z,19.42
2023-02-19T00:01:56.281Z,19.42
2023-02-19T00:02:56.283Z,19.40
2023-02-19T00:03:56.262Z,19.42
2023-02-19T00:04:56.280Z,19.42
2023-02-19T00:05:56.242Z,19.40
2023-02-19T00:06:56.233Z,19.42
2023-02-19T00:07:56.257Z,19.40
2023-02-19T00:08:56.199Z,19.40
2023-02-19T00:09:56.199Z,19.40
2023-02-19T00:10:56.180Z,19.42
2023-02-19T00:11:56.177Z,19.42
2023-02-19T00:12:56.186Z,19.42
2023-02-19T00:13:57.113Z,19.42
2023-02-19T00:14:56.138Z,19.40
2023-02-19T00:15:56.160Z,19.39
2023-02-19T00:16:56.121Z,19.42
2023-02-19T00:17:56.128Z,19.40
2023-02-19T00:18:56.100Z,19.40
2023-02-19T00:19:56.095Z,19.40
2023-02-19T00:20:56.090Z,19.40
2023-02-19T00:21:56.069Z,19.40
2023-02-19T00:22:56.062Z,19.42
2023-02-19T00:23:56.060Z,19.40
2023-02-19T00:24:56.043Z,19.39
2023-02-19T00:26:00.990Z,19.40
2023-02-19T00:26:56.024Z,19.40
2023-02-19T00:27:56.008Z,19.42
2023-02-19T00:28:56.005Z,19.39
2023-02-19T00:29:55.992Z,19.39
2023-02-19T00:30:56.046Z,19.39
2023-02-19T00:31:56.106Z,19.39
2023-02-19T00:32:55.954Z,19.40
2023-02-19T00:33:55.959Z,19.40
2023-02-19T00:34:55.935Z,19.40
2023-02-19T00:35:55.932Z,19.40
2023-02-19T00:36:55.937Z,19.39
2023-02-19T00:37:55.916Z,19.40
2023-02-19T00:38:55.909Z,19.40
2023-02-19T00:39:55.889Z,19.40
2023-02-19T00:40:55.876Z,19.39
2023-02-19T00:41:55.875Z,19.39
2023-02-19T00:42:55.856Z,19.39
2023-02-19T00:43:55.870Z,19.39
2023-02-19T00:44:55.836Z,19.39
2023-02-19T00:45:55.828Z,19.39
2023-02-19T00:46:55.815Z,19.38
2023-02-19T00:47:55.814Z,19.39
2023-02-19T00:48:55.796Z,19.39
2023-02-19T00:49:55.799Z,19.39
2023-02-19T00:50:55.773Z,19.36
2023-02-19T00:51:55.781Z,19.39
2023-02-19T00:52:55.754Z,19.40
2023-02-19T00:53:55.756Z,19.39
2023-02-19T00:54:55.751Z,19.39
2023-02-19T00:55:55.732Z,19.38
2023-02-19T00:56:55.723Z,19.39
2023-02-19T00:57:55.715Z,19.38
2023-02-19T00:58:55.694Z,19.38
2023-02-19T00:59:55.694Z,19.36
2023-02-19T01:00:55.679Z,19.38
2023-02-19T01:01:55.714Z,19.39
2023-02-19T01:02:55.649Z,19.38
2023-02-19T01:03:55.646Z,19.38
2023-02-19T01:04:55.672Z,19.38
2023-02-19T01:05:55.637Z,19.38
2023-02-19T01:06:55.631Z,19.38
2023-02-19T01:07:55.607Z,19.38
2023-02-19T01:08:55.593Z,19.36
2023-02-19T01:09:55.593Z,19.36
2023-02-19T01:10:55.574Z,19.38
2023-02-19T01:11:55.574Z,19.36
2023-02-19T01:12:55.549Z,19.36
2023-02-19T01:13:56.132Z,19.38
2023-02-19T01:14:55.542Z,19.35
2023-02-19T01:15:55.550Z,19.36
2023-02-19T01:16:55.510Z,19.36
2023-02-19T01:17:55.506Z,19.35
2023-02-19T01:18:56.132Z,19.36
2023-02-19T01:19:55.495Z,19.36
2023-02-19T01:20:55.472Z,19.36
2023-02-19T01:21:55.467Z,19.36
2023-02-19T01:22:55.443Z,19.38
2023-02-19T01:23:55.435Z,19.36
2023-02-19T01:24:55.425Z,19.36
2023-02-19T01:25:55.425Z,19.36
2023-02-19T01:26:55.399Z,19.36
2023-02-19T01:27:55.393Z,19.36
2023-02-19T01:28:55.382Z,19.38
2023-02-19T01:29:55.377Z,19.36
2023-02-19T01:30:55.381Z,19.38
2023-02-19T01:31:55.418Z,19.38
2023-02-19T01:32:55.341Z,19.36
2023-02-19T01:33:55.434Z,19.35
2023-02-19T01:34:55.323Z,19.36
2023-02-19T01:35:55.340Z,19.35
2023-02-19T01:36:55.307Z,19.35
2023-02-19T01:37:55.294Z,19.36
2023-02-19T01:38:55.278Z,19.35
2023-02-19T01:39:55.271Z,19.35
2023-02-19T01:40:55.258Z,19.35
2023-02-19T01:41:55.263Z,19.36
2023-02-19T01:42:55.236Z,19.35
2023-02-19T01:43:55.232Z,19.35
2023-02-19T01:44:55.222Z,19.36
2023-02-19T01:45:55.217Z,19.35
2023-02-19T01:46:55.290Z,19.35
2023-02-19T01:47:55.192Z,19.35
2023-02-19T01:48:55.187Z,19.35
2023-02-19T01:49:55.167Z,19.35
2023-02-19T01:50:55.162Z,19.35
2023-02-19T01:51:55.150Z,19.36
2023-02-19T01:52:55.147Z,19.35
2023-02-19T01:53:55.127Z,19.35
2023-02-19T01:54:55.119Z,19.35
2023-02-19T01:55:55.106Z,19.35
2023-02-19T01:56:55.102Z,19.35
2023-02-19T01:57:55.090Z,19.35
2023-02-19T01:58:55.080Z,19.35
2023-02-19T01:59:55.073Z,19.35
2023-02-19T02:00:55.068Z,19.35
2023-02-19T02:01:55.087Z,19.36
2023-02-19T02:02:55.032Z,19.35
2023-02-19T02:03:55.034Z,19.33
2023-02-19T02:04:55.008Z,19.35
2023-02-19T02:05:55.013Z,19.35
2023-02-19T02:06:54.992Z,19.33
2023-02-19T02:07:54.986Z,19.33
2023-02-19T02:08:54.978Z,19.35
2023-02-19T02:09:54.961Z,19.33
2023-02-19T02:10:54.973Z,19.35
2023-02-19T02:11:54.942Z,19.33
2023-02-19T02:12:54.929Z,19.35
2023-02-19T02:13:55.651Z,19.32
2023-02-19T02:14:54.909Z,19.33
2023-02-19T02:15:54.922Z,19.32
2023-02-19T02:16:54.897Z,19.33
2023-02-19T02:17:54.884Z,19.33
2023-02-19T02:18:54.865Z,19.33
2023-02-19T02:19:54.872Z,19.33
2023-02-19T02:20:54.852Z,19.35
2023-02-19T02:21:54.840Z,19.32
2023-02-19T02:22:54.836Z,19.33
2023-02-19T02:23:54.868Z,19.33
2023-02-19T02:24:54.808Z,19.33
2023-02-19T02:25:54.797Z,19.33
2023-02-19T02:26:54.781Z,19.32
2023-02-19T02:27:54.780Z,19.32
2023-02-19T02:28:54.762Z,19.32
2023-02-19T02:29:54.771Z,19.32
2023-02-19T02:30:54.780Z,19.33
2023-02-19T02:31:54.785Z,19.32
2023-02-19T02:32:54.721Z,19.33
2023-02-19T02:33:54.808Z,19.33
2023-02-19T02:34:54.711Z,19.35
2023-02-19T02:35:54.693Z,19.33
2023-02-19T02:36:54.684Z,19.32
2023-02-19T02:37:54.674Z,19.32
2023-02-19T02:38:54.662Z,19.32
2023-02-19T02:39:54.651Z,19.35
2023-02-19T02:40:55.270Z,19.32
2023-02-19T02:41:54.640Z,19.33
2023-02-19T02:42:54.617Z,19.32
2023-02-19T02:43:54.609Z,19.33
2023-02-19T02:44:54.594Z,19.33
2023-02-19T02:45:54.829Z,19.33
2023-02-19T02:46:54.584Z,19.32
2023-02-19T02:47:54.566Z,19.32
2023-02-19T02:48:54.558Z,19.32
2023-02-19T02:49:54.549Z,19.32
2023-02-19T02:50:54.565Z,19.33
2023-02-19T02:51:54.533Z,19.32
2023-02-19T02:52:54.519Z,19.33
2023-02-19T02:53:54.504Z,19.32
2023-02-19T02:54:54.489Z,19.32
2023-02-19T02:55:54.491Z,19.33
2023-02-19T02:56:54.482Z,19.32
2023-02-19T02:57:54.462Z,19.32
2023-02-19T02:58:54.462Z,19.32
2023-02-19T02:59:54.442Z,19.33
2023-02-19T03:00:54.489Z,19.32
2023-02-19T03:01:54.430Z,19.32
2023-02-19T03:02:54.415Z,19.35
2023-02-19T03:03:54.400Z,19.33
2023-02-19T03:04:54.393Z,19.33
2023-02-19T03:05:54.379Z,19.32
2023-02-19T03:06:54.380Z,19.32
2023-02-19T03:07:54.361Z,19.33
2023-02-19T03:08:54.347Z,19.33
2023-02-19T03:09:54.348Z,19.33
2023-02-19T03:10:54.332Z,19.32
2023-02-19T03:11:54.316Z,19.33
2023-02-19T03:12:54.302Z,19.33
2023-02-19T03:13:55.175Z,19.32
2023-02-19T03:14:54.294Z,19.32
2023-02-19T03:15:54.284Z,19.32
2023-02-19T03:16:54.273Z,19.32
2023-02-19T03:17:54.257Z,19.32
2023-02-19T03:18:54.243Z,19.32
2023-02-19T03:19:54.249Z,19.33
2023-02-19T03:20:54.222Z,19.33
2023-02-19T03:21:54.222Z,19.32
2023-02-19T03:22:54.201Z,19.32
2023-02-19T03:23:54.190Z,19.32
2023-02-19T03:24:54.176Z,19.32
2023-02-19T03:25:54.176Z,19.33
2023-02-19T03:26:54.222Z,19.32
2023-02-19T03:27:54.148Z,19.31
2023-02-19T03:28:54.197Z,19.33
2023-02-19T03:29:54.127Z,19.32
2023-02-19T03:30:54.140Z,19.32
2023-02-19T03:31:54.209Z,19.32
2023-02-19T03:32:54.100Z,19.33
2023-02-19T03:33:54.178Z,19.33
2023-02-19T03:34:54.071Z,19.32
2023-02-19T03:35:54.067Z,19.32
2023-02-19T03:36:54.063Z,19.32
2023-02-19T03:37:54.065Z,19.31
2023-02-19T03:38:54.035Z,19.32
2023-02-19T03:39:54.026Z,19.32
2023-02-19T03:40:54.018Z,19.31
2023-02-19T03:41:54.000Z,19.31
2023-02-19T03:42:56.150Z,19.31
2023-02-19T03:43:53.985Z,19.32
2023-02-19T03:44:53.974Z,19.32
2023-02-19T03:45:53.996Z,19.32
2023-02-19T03:46:53.959Z,19.32
2023-02-19T03:47:53.943Z,19.32
2023-02-19T03:48:53.939Z,19.32
2023-02-19T03:49:53.914Z,19.31
2023-02-19T03:50:53.906Z,19.32
2023-02-19T03:51:53.892Z,19.31
2023-02-19T03:52:53.902Z,19.31
2023-02-19T03:53:53.889Z,19.32
2023-02-19T03:54:53.868Z,19.31
2023-02-19T03:55:53.864Z,19.31
2023-02-19T03:56:53.841Z,19.31
2023-02-19T03:57:53.840Z,19.31
2023-02-19T03:58:53.832Z,19.31
2023-02-19T03:59:53.814Z,19.32
2023-02-19T04:00:53.803Z,19.32
2023-02-19T04:01:53.860Z,19.31
2023-02-19T04:02:53.783Z,19.29
2023-02-19T04:03:53.787Z,19.31
2023-02-19T04:04:53.793Z,19.31
2023-02-19T04:05:53.767Z,19.31
2023-02-19T04:06:53.745Z,19.31
2023-02-19T04:07:53.725Z,19.29
2023-02-19T04:08:53.720Z,19.33
2023-02-19T04:09:53.704Z,19.31
2023-02-19T04:10:53.712Z,19.32
2023-02-19T04:11:53.700Z,19.31
2023-02-19T04:12:53.689Z,19.32
2023-02-19T04:13:54.195Z,19.31
2023-02-19T04:14:53.672Z,19.31
2023-02-19T04:15:53.645Z,19.31
2023-02-19T04:16:53.686Z,19.29
2023-02-19T04:17:53.622Z,19.31
2023-02-19T04:18:53.632Z,19.32
2023-02-19T04:19:53.620Z,19.29
2023-02-19T04:20:53.601Z,19.31
2023-02-19T04:21:53.579Z,19.31
2023-02-19T04:22:53.576Z,19.29
2023-02-19T04:23:53.563Z,19.31
2023-02-19T04:24:53.568Z,19.31
2023-02-19T04:25:53.537Z,19.31
2023-02-19T04:26:53.533Z,19.31
2023-02-19T04:27:53.531Z,19.32
2023-02-19T04:28:53.508Z,19.31
2023-02-19T04:29:53.505Z,19.31
2023-02-19T04:30:53.529Z,19.29
2023-02-19T04:31:53.523Z,19.31
2023-02-19T04:32:53.469Z,19.31
2023-02-19T04:33:53.522Z,19.32
2023-02-19T04:34:54.442Z,19.29
2023-02-19T04:35:53.468Z,19.31
2023-02-19T04:36:53.424Z,19.31
2023-02-19T04:37:53.407Z,19.29
2023-02-19T04:38:53.410Z,19.29
2023-02-19T04:39:53.405Z,19.31
2023-02-19T04:40:53.377Z,19.29
2023-02-19T04:41:53.362Z,19.29
2023-02-19T04:42:53.359Z,19.31
2023-02-19T04:43:53.359Z,19.31
2023-02-19T04:44:53.360Z,19.29
2023-02-19T04:45:53.413Z,19.31
2023-02-19T04:46:53.310Z,19.31
2023-02-19T04:47:53.296Z,19.31
2023-02-19T04:48:53.289Z,19.29
2023-02-19T04:49:53.292Z,19.31
2023-02-19T04:50:53.281Z,19.32
2023-02-19T04:51:53.260Z,19.31
2023-02-19T04:52:53.254Z,19.32
2023-02-19T04:53:53.249Z,19.35
2023-02-19T04:54:53.232Z,19.35
2023-02-19T04:55:53.274Z,19.33
2023-02-19T04:56:53.222Z,19.35
2023-02-19T04:57:53.204Z,19.36
2023-02-19T04:58:53.198Z,19.36
2023-02-19T04:59:53.170Z,19.39
2023-02-19T05:00:53.171Z,19.39
2023-02-19T05:01:53.243Z,19.40
2023-02-19T05:02:53.145Z,19.40
2023-02-19T05:03:53.138Z,19.42
2023-02-19T05:04:53.126Z,19.43
2023-02-19T05:05:53.111Z,19.43
2023-02-19T05:06:53.125Z,19.46
2023-02-19T05:07:53.087Z,19.46
2023-02-19T05:08:53.102Z,19.47
2023-02-19T05:09:53.069Z,19.47
2023-02-19T05:10:53.065Z,19.47
2023-02-19T05:11:53.053Z,19.48
2023-02-19T05:12:53.044Z,19.50
2023-02-19T05:13:53.700Z,19.48
2023-02-19T05:14:53.030Z,19.51
2023-02-19T05:15:53.005Z,19.50
2023-02-19T05:16:52.999Z,19.51
2023-02-19T05:17:52.984Z,19.51
2023-02-19T05:18:53.001Z,19.51
2023-02-19T05:19:52.961Z,19.51
2023-02-19T05:20:52.956Z,19.53
2023-02-19T05:21:52.946Z,19.53
2023-02-19T05:22:52.938Z,19.53
2023-02-19T05:23:52.931Z,19.54
2023-02-19T05:24:52.920Z,19.55
2023-02-19T05:25:52.910Z,19.54
2023-02-19T05:26:52.899Z,19.54
2023-02-19T05:27:52.879Z,19.55
2023-02-19T05:28:52.884Z,19.57
2023-02-19T05:29:52.869Z,19.55
2023-02-19T05:30:52.921Z,19.57
2023-02-19T05:31:53.031Z,19.55
2023-02-19T05:32:52.837Z,19.57
2023-02-19T05:33:52.835Z,19.57
2023-02-19T05:34:52.813Z,19.55
2023-02-19T05:35:52.817Z,19.57
2023-02-19T05:36:52.792Z,19.57
2023-02-19T05:37:52.779Z,19.57
2023-02-19T05:38:52.773Z,19.57
2023-02-19T05:39:52.758Z,19.57
2023-02-19T05:40:52.814Z,19.57
2023-02-19T05:41:52.746Z,19.57
2023-02-19T05:42:52.739Z,19.60
2023-02-19T05:43:52.719Z,19.58
2023-02-19T05:44:52.708Z,19.57
2023-02-19T05:45:52.707Z,19.58
2023-02-19T05:46:52.692Z,19.58
2023-02-19T05:47:52.685Z,19.60
2023-02-19T05:48:52.668Z,19.58
2023-02-19T05:49:52.658Z,19.60
2023-02-19T05:50:52.648Z,19.58
2023-02-19T05:51:52.646Z,19.58
2023-02-19T05:52:52.627Z,19.60
2023-02-19T05:53:52.615Z,19.57
2023-02-19T05:54:52.618Z,19.58
2023-02-19T05:55:52.605Z,19.58
2023-02-19T05:56:52.601Z,19.58
2023-02-19T05:57:52.575Z,19.58
2023-02-19T05:58:52.573Z,19.58
2023-02-19T05:59:52.553Z,19.58
2023-02-19T06:00:52.544Z,19.58
2023-02-19T06:01:52.531Z,19.57
2023-02-19T06:02:52.557Z,19.58
2023-02-19T06:03:54.049Z,19.58
2023-02-19T06:04:52.505Z,19.58
2023-02-19T06:05:52.498Z,19.57
2023-02-19T06:06:52.493Z,19.58
2023-02-19T06:07:52.470Z,19.57
2023-02-19T06:08:52.476Z,19.58
2023-02-19T06:09:52.459Z,19.58
2023-02-19T06:10:52.457Z,19.58
2023-02-19T06:11:52.432Z,19.57
2023-02-19T06:12:52.426Z,19.57
2023-02-19T06:13:53.222Z,19.57
2023-02-19T06:14:52.402Z,19.58
2023-02-19T06:15:52.434Z,19.58
2023-02-19T06:16:52.407Z,19.57
2023-02-19T06:17:52.372Z,19.57
2023-02-19T06:18:52.376Z,19.57
2023-02-19T06:19:52.356Z,19.55
2023-02-19T06:20:52.344Z,19.57
2023-02-19T06:21:52.345Z,19.58
2023-02-19T06:22:52.322Z,19.57
2023-02-19T06:23:52.312Z,19.55
2023-02-19T06:24:52.318Z,19.57
2023-02-19T06:25:52.288Z,19.58
2023-02-19T06:26:52.280Z,19.57
2023-02-19T06:27:52.282Z,19.58
2023-02-19T06:28:52.261Z,19.57
2023-02-19T06:29:52.257Z,19.58
2023-02-19T06:30:52.243Z,19.58
2023-02-19T06:31:52.316Z,19.57
2023-02-19T06:32:52.225Z,19.58
2023-02-19T06:33:52.225Z,19.57
2023-02-19T06:34:52.211Z,19.58
2023-02-19T06:35:52.192Z,19.58
2023-02-19T06:36:52.198Z,19.58
2023-02-19T06:37:52.175Z,19.58
2023-02-19T06:38:52.189Z,19.58
2023-02-19T06:39:52.165Z,19.58
2023-02-19T06:40:52.142Z,19.58
2023-02-19T06:41:52.138Z,19.60
2023-02-19T06:42:52.121Z,19.60
2023-02-19T06:43:52.108Z,19.58
2023-02-19T06:44:52.104Z,19.57
2023-02-19T06:45:52.175Z,19.58
2023-02-19T06:46:52.143Z,19.58
2023-02-19T06:47:52.064Z,19.60
2023-02-19T06:48:52.062Z,19.60
2023-02-19T06:49:52.066Z,19.60
2023-02-19T06:50:52.044Z,19.60
2023-02-19T06:51:52.077Z,19.60
2023-02-19T06:52:52.031Z,19.60
2023-02-19T06:53:52.026Z,19.58
2023-02-19T06:54:51.999Z,19.60
2023-02-19T06:55:51.988Z,19.61
2023-02-19T06:56:51.992Z,19.60
2023-02-19T06:57:52.003Z,19.61
2023-02-19T06:58:51.965Z,19.60
2023-02-19T06:59:52.005Z,19.61
2023-02-19T07:00:51.985Z,19.61
2023-02-19T07:01:51.952Z,19.61
2023-02-19T07:02:51.953Z,19.61
2023-02-19T07:03:51.937Z,19.60
2023-02-19T07:04:51.945Z,19.61
2023-02-19T07:05:51.878Z,19.63
2023-02-19T07:06:51.886Z,19.63
2023-02-19T07:07:51.859Z,19.61
2023-02-19T07:08:51.886Z,19.63
2023-02-19T07:09:51.845Z,19.63
2023-02-19T07:10:51.852Z,19.63
2023-02-19T07:11:51.816Z,19.63
2023-02-19T07:12:51.815Z,19.63
2023-02-19T07:13:52.740Z,19.66
2023-02-19T07:14:51.805Z,19.65
2023-02-19T07:15:52.479Z,19.65
2023-02-19T07:16:51.771Z,19.65
2023-02-19T07:17:51.753Z,19.65
2023-02-19T07:18:51.751Z,19.66
2023-02-19T07:19:51.744Z,19.65
2023-02-19T07:20:51.748Z,19.65
2023-02-19T07:21:51.725Z,19.65
2023-02-19T07:22:51.708Z,19.65
2023-02-19T07:23:51.697Z,19.65
2023-02-19T07:24:51.696Z,19.65
2023-02-19T07:25:51.669Z,19.65
2023-02-19T07:26:51.676Z,19.65
2023-02-19T07:27:51.661Z,19.65
2023-02-19T07:28:51.652Z,19.66
2023-02-19T07:29:51.629Z,19.66
2023-02-19T07:30:51.638Z,19.66
2023-02-19T07:31:51.623Z,19.65
2023-02-19T07:32:57.900Z,19.66
2023-02-19T07:33:51.598Z,19.65
2023-02-19T07:34:51.585Z,19.66
2023-02-19T07:35:51.578Z,19.68
2023-02-19T07:36:51.567Z,19.66
2023-02-19T07:37:51.552Z,19.66
2023-02-19T07:38:51.546Z,19.66
2023-02-19T07:39:51.534Z,19.66
2023-02-19T07:40:51.533Z,19.66
2023-02-19T07:41:51.511Z,19.66
2023-02-19T07:42:51.503Z,19.65
2023-02-19T07:43:51.493Z,19.66
2023-02-19T07:44:52.494Z,19.65
2023-02-19T07:45:51.554Z,19.68
2023-02-19T07:46:51.462Z,19.66
2023-02-19T07:47:51.459Z,19.66
2023-02-19T07:48:51.441Z,19.68
2023-02-19T07:49:51.438Z,19.66
2023-02-19T07:50:51.427Z,19.66
2023-02-19T07:51:51.422Z,19.65
2023-02-19T07:52:51.396Z,19.66
2023-02-19T07:53:51.391Z,19.65
2023-02-19T07:54:51.385Z,19.66
2023-02-19T07:55:51.372Z,19.66
2023-02-19T07:56:51.375Z,19.66
2023-02-19T07:57:51.352Z,19.66
2023-02-19T07:58:51.339Z,19.66
2023-02-19T07:59:51.344Z,19.66
2023-02-19T08:00:51.343Z,19.68
2023-02-19T08:01:51.325Z,19.65
2023-02-19T08:02:51.301Z,19.65
2023-02-19T08:03:51.305Z,19.66
2023-02-19T08:04:51.286Z,19.65
2023-02-19T08:05:51.280Z,19.66
2023-02-19T08:06:51.256Z,19.65
2023-02-19T08:07:51.256Z,19.65
2023-02-19T08:08:51.236Z,19.66
2023-02-19T08:09:51.237Z,19.65
2023-02-19T08:10:51.223Z,19.66
2023-02-19T08:11:51.210Z,19.66
2023-02-19T08:12:51.204Z,19.66
2023-02-19T08:13:51.790Z,19.68
2023-02-19T08:14:51.190Z,19.65
2023-02-19T08:15:51.179Z,19.65
2023-02-19T08:16:51.186Z,19.68
2023-02-19T08:17:51.161Z,19.65
2023-02-19T08:18:51.143Z,19.66
2023-02-19T08:19:51.152Z,19.65
2023-02-19T08:20:51.132Z,19.66
2023-02-19T08:21:51.121Z,19.65
2023-02-19T08:22:51.094Z,19.66
2023-02-19T08:23:51.427Z,19.66
2023-02-19T08:24:51.100Z,19.66
2023-02-19T08:25:51.068Z,19.68
2023-02-19T08:26:51.052Z,19.65
2023-02-19T08:27:51.039Z,19.66
2023-02-19T08:28:51.028Z,19.66
2023-02-19T08:29:51.037Z,19.66
2023-02-19T08:30:51.158Z,19.66
2023-02-19T08:31:51.015Z,19.66
2023-02-19T08:32:51.000Z,19.66
2023-02-19T08:33:50.988Z,19.66
2023-02-19T08:34:50.975Z,19.66
2023-02-19T08:35:50.961Z,19.66
2023-02-19T08:36:50.955Z,19.68
2023-02-19T08:37:50.943Z,19.68
2023-02-19T08:38:50.953Z,19.66
2023-02-19T08:39:50.930Z,19.66
2023-02-19T08:40:50.911Z,19.66
2023-02-19T08:41:50.919Z,19.66
2023-02-19T08:42:50.887Z,19.66
2023-02-19T08:43:50.906Z,19.66
2023-02-19T08:44:50.876Z,19.68
2023-02-19T08:45:50.886Z,19.68
2023-02-19T08:46:50.850Z,19.66
2023-02-19T08:47:50.844Z,19.66
2023-02-19T08:48:50.830Z,19.66
2023-02-19T08:49:50.820Z,19.65
2023-02-19T08:50:50.805Z,19.66
2023-02-19T08:51:50.812Z,19.66
2023-02-19T08:52:50.784Z,19.68
2023-02-19T08:53:51.410Z,19.66
2023-02-19T08:54:50.772Z,19.66
2023-02-19T08:55:50.789Z,19.66
2023-02-19T08:56:50.756Z,19.66
2023-02-19T08:57:50.759Z,19.65
2023-02-19T08:58:50.668Z,19.65
2023-02-19T08:59:50.712Z,19.66
2023-02-19T09:00:50.653Z,19.66
2023-02-19T09:01:50.640Z,19.68
2023-02-19T09:02:50.686Z,19.66
2023-02-19T09:03:50.861Z,19.66
2023-02-19T09:04:50.665Z,19.66
2023-02-19T09:05:50.614Z,19.65
2023-02-19T09:06:50.590Z,19.66
2023-02-19T09:07:50.637Z,19.66
2023-02-19T09:08:50.613Z,19.65
2023-02-19T09:09:50.607Z,19.66
2023-02-19T09:10:50.606Z,19.66
2023-02-19T09:11:50.591Z,19.65
2023-02-19T09:12:50.573Z,19.68
2023-02-19T09:13:50.595Z,19.66
2023-02-19T09:14:50.551Z,19.66
2023-02-19T09:15:50.643Z,19.68
2023-02-19T09:16:50.530Z,19.68
2023-02-19T09:17:50.524Z,19.68
2023-02-19T09:18:50.520Z,19.68
2023-02-19T09:19:50.926Z,19.69
2023-02-19T09:20:50.499Z,19.68
2023-02-19T09:21:50.488Z,19.68
2023-02-19T09:22:50.478Z,19.68
2023-02-19T09:23:50.479Z,19.68
2023-02-19T09:24:50.457Z,19.68
2023-02-19T09:25:50.465Z,19.68
2023-02-19T09:26:50.439Z,19.68
2023-02-19T09:27:50.428Z,19.68
2023-02-19T09:28:50.378Z,19.68
2023-02-19T09:29:50.354Z,19.69
2023-02-19T09:30:50.371Z,19.69
2023-02-19T09:31:50.420Z,19.69
2023-02-19T09:32:50.376Z,19.68
2023-02-19T09:33:50.372Z,19.69
2023-02-19T09:34:50.355Z,19.69
2023-02-19T09:35:50.304Z,19.68
2023-02-19T09:36:50.291Z,19.68
2023-02-19T09:37:50.276Z,19.69
2023-02-19T09:38:50.266Z,19.68
2023-02-19T09:39:50.267Z,19.69
2023-02-19T09:40:50.247Z,19.69
2023-02-19T09:41:50.234Z,19.69
2023-02-19T09:42:50.223Z,19.68
2023-02-19T09:43:50.269Z,19.69
2023-02-19T09:44:50.204Z,19.69
2023-02-19T09:45:50.198Z,19.69
2023-02-19T09:46:50.180Z,19.69
2023-02-19T09:47:50.234Z,19.68
2023-02-19T09:48:50.210Z,19.70
2023-02-19T09:49:50.230Z,19.69
2023-02-19T09:50:50.184Z,19.69
2023-02-19T09:51:50.191Z,19.69
2023-02-19T09:52:50.165Z,19.69
2023-02-19T09:53:50.923Z,19.70
2023-02-19T09:54:50.081Z,19.69
2023-02-19T09:55:50.074Z,19.69
2023-02-19T09:56:50.062Z,19.69
2023-02-19T09:57:50.117Z,19.70
2023-02-19T09:58:50.156Z,19.69
2023-02-19T09:59:50.046Z,19.70
2023-02-19T10:00:50.020Z,19.69
2023-02-19T10:01:50.064Z,19.68
2023-02-19T10:02:50.059Z,19.70
2023-02-19T10:03:50.045Z,19.69
2023-02-19T10:04:50.055Z,19.68
2023-02-19T10:05:50.030Z,19.68
2023-02-19T10:06:50.024Z,19.68
2023-02-19T10:07:50.006Z,19.68
2023-02-19T10:08:49.993Z,19.68
2023-02-19T10:09:49.995Z,19.69
2023-02-19T10:10:49.967Z,19.69
2023-02-19T10:11:49.972Z,19.69
2023-02-19T10:12:49.958Z,19.69
2023-02-19T10:13:49.955Z,19.69
2023-02-19T10:14:49.926Z,19.68
2023-02-19T10:15:49.967Z,19.68
2023-02-19T10:16:49.871Z,19.68
2023-02-19T10:17:49.900Z,19.68
2023-02-19T10:18:49.891Z,19.66
2023-02-19T10:19:49.879Z,19.68
2023-02-19T10:20:49.826Z,19.69
2023-02-19T10:21:49.805Z,19.68
2023-02-19T10:22:49.810Z,19.68
2023-02-19T10:23:49.783Z,19.68
2023-02-19T10:24:49.780Z,19.68
2023-02-19T10:25:49.770Z,19.68
2023-02-19T10:26:49.802Z,19.68
2023-02-19T10:27:49.789Z,19.68
2023-02-19T10:28:49.739Z,19.66
2023-02-19T10:29:49.725Z,19.69
2023-02-19T10:30:49.792Z,19.68
2023-02-19T10:31:49.830Z,19.68
2023-02-19T10:32:49.695Z,19.69
2023-02-19T10:33:49.685Z,19.68
2023-02-19T10:34:49.734Z,19.69
2023-02-19T10:35:49.673Z,19.68
2023-02-19T10:36:49.647Z,19.69
2023-02-19T10:37:49.670Z,19.66
2023-02-19T10:38:49.694Z,19.68
2023-02-19T10:39:49.652Z,19.68
2023-02-19T10:40:49.604Z,19.68
2023-02-19T10:41:49.656Z,19.68
2023-02-19T10:42:49.650Z,19.68
2023-02-19T10:43:49.639Z,19.69
2023-02-19T10:44:49.586Z,19.69
2023-02-19T10:45:49.559Z,19.69
2023-02-19T10:46:49.590Z,19.69
2023-02-19T10:47:49.604Z,19.69
2023-02-19T10:48:49.581Z,19.68
2023-02-19T10:49:49.585Z,19.68
2023-02-19T10:50:49.561Z,19.68
2023-02-19T10:51:49.553Z,19.66
2023-02-19T10:52:49.544Z,19.69
2023-02-19T10:53:49.968Z,19.68
2023-02-19T10:54:49.521Z,19.68
2023-02-19T10:55:49.514Z,19.69
2023-02-19T10:56:49.499Z,19.68
2023-02-19T10:57:49.454Z,19.68
2023-02-19T10:58:49.429Z,19.68
2023-02-19T10:59:49.467Z,19.68
2023-02-19T11:00:49.469Z,19.68
2023-02-19T11:01:49.480Z,19.68
2023-02-19T11:02:49.434Z,19.68
2023-02-19T11:03:49.514Z,19.69
2023-02-19T11:04:49.372Z,19.68
2023-02-19T11:05:49.354Z,19.68
2023-02-19T11:06:49.393Z,19.69
2023-02-19T11:07:49.389Z,19.70
2023-02-19T11:08:49.382Z,19.69
2023-02-19T11:09:49.377Z,19.69
2023-02-19T11:10:49.361Z,19.69
2023-02-19T11:11:49.350Z,19.69
2023-02-19T11:12:49.292Z,19.69
2023-02-19T11:13:49.318Z,19.70
2023-02-19T11:14:49.257Z,19.68
2023-02-19T11:15:49.309Z,19.69
2023-02-19T11:16:49.288Z,19.69
2023-02-19T11:17:49.293Z,19.69
2023-02-19T11:18:49.348Z,19.69
2023-02-19T11:19:49.273Z,19.69
2023-02-19T11:20:49.198Z,19.69
2023-02-19T11:21:49.204Z,19.68
2023-02-19T11:22:49.253Z,19.69
2023-02-19T11:23:49.197Z,19.69
2023-02-19T11:24:49.229Z,19.69
2023-02-19T11:25:49.209Z,19.70
2023-02-19T11:26:49.185Z,19.70
2023-02-19T11:27:49.183Z,19.69
2023-02-19T11:28:49.165Z,19.68
2023-02-19T11:29:49.128Z,19.69
2023-02-19T11:30:49.141Z,19.69
2023-02-19T11:31:49.179Z,19.70
2023-02-19T11:32:49.074Z,19.70
2023-02-19T11:33:49.070Z,19.69
2023-02-19T11:34:49.120Z,19.69
2023-02-19T11:35:49.097Z,19.69
2023-02-19T11:36:49.053Z,19.69
2023-02-19T11:37:49.088Z,19.70
2023-02-19T11:38:49.063Z,19.70
2023-02-19T11:39:49.062Z,19.70
2023-02-19T11:40:49.042Z,19.69
2023-02-19T11:41:49.073Z,19.70
2023-02-19T11:42:49.026Z,19.70
2023-02-19T11:43:49.057Z,19.69
2023-02-19T11:44:49.003Z,19.69
2023-02-19T11:45:49.000Z,19.72
2023-02-19T11:46:49.067Z,19.70
2023-02-19T11:47:48.998Z,19.70
2023-02-19T11:48:48.974Z,19.70
2023-02-19T11:49:48.928Z,19.72
2023-02-19T11:50:48.900Z,19.70
2023-02-19T11:51:52.405Z,19.69
2023-02-19T11:52:48.923Z,19.72
2023-02-19T11:53:49.966Z,19.70
2023-02-19T11:54:48.857Z,19.70
2023-02-19T11:55:48.891Z,19.72
2023-02-19T11:56:48.845Z,19.72
2023-02-19T11:57:48.838Z,19.69
2023-02-19T11:58:48.874Z,19.69
2023-02-19T11:59:48.813Z,19.70
2023-02-19T12:00:48.794Z,19.69
2023-02-19T12:01:48.798Z,19.70
2023-02-19T12:02:48.783Z,19.70
2023-02-19T12:03:48.804Z,19.70
2023-02-19T12:04:48.835Z,19.70
2023-02-19T12:05:48.782Z,19.70
2023-02-19T12:06:48.778Z,19.70
2023-02-19T12:07:48.722Z,19.68
2023-02-19T12:08:48.723Z,19.69
2023-02-19T12:09:48.694Z,19.70
2023-02-19T12:10:48.682Z,19.69
2023-02-19T12:11:48.686Z,19.70
2023-02-19T12:12:48.658Z,19.70
2023-02-19T12:13:49.361Z,19.70
2023-02-19T12:14:48.646Z,19.70
2023-02-19T12:15:48.678Z,19.68
2023-02-19T12:16:48.703Z,19.69
2023-02-19T12:17:48.655Z,19.69
2023-02-19T12:18:48.717Z,19.68
2023-02-19T12:19:48.645Z,19.69
2023-02-19T12:20:48.628Z,19.69
2023-02-19T12:21:48.574Z,19.69
2023-02-19T12:22:48.590Z,19.69
2023-02-19T12:23:48.547Z,19.68
2023-02-19T12:24:48.589Z,19.68
2023-02-19T12:25:48.579Z,19.69
2023-02-19T12:26:48.577Z,19.69
2023-02-19T12:27:48.554Z,19.68
2023-02-19T12:28:48.558Z,19.68
2023-02-19T12:29:48.530Z,19.69
2023-02-19T12:30:48.587Z,19.69
2023-02-19T12:31:48.540Z,19.69
2023-02-19T12:32:48.505Z,19.69
2023-02-19T12:33:48.502Z,19.69
2023-02-19T12:34:48.495Z,19.69
2023-02-19T12:35:48.469Z,19.69
2023-02-19T12:36:50.614Z,19.68
2023-02-19T12:37:48.476Z,19.69
2023-02-19T12:38:48.455Z,19.68
2023-02-19T12:39:48.388Z,19.68
2023-02-19T12:40:48.369Z,19.68
2023-02-19T12:41:48.361Z,19.69
2023-02-19T12:42:50.744Z,19.68
2023-02-19T12:43:48.397Z,19.69
2023-02-19T12:44:48.392Z,19.69
2023-02-19T12:45:48.388Z,19.69
2023-02-19T12:46:48.362Z,19.68
2023-02-19T12:47:48.355Z,19.68
2023-02-19T12:48:48.353Z,19.69
2023-02-19T12:49:48.282Z,19.68
2023-02-19T12:50:48.268Z,19.69
2023-02-19T12:51:48.279Z,19.69
2023-02-19T12:52:48.250Z,19.68